Terminal Aerodrome Forecast
Issued by NWS

Current Version | Previous Version | Text Only | Print | Product List | Glossary Off
Versions: 1 2 3 4 5 6 7 8 9 10 11 12 13 14 15 16 17 18 19 20 21 22

000
FTUS41 KRLX 261134
TAFCKB
TAF
KCKB 261134Z 2612/2712 VRB03KT P6SM BKN050
     FM261700 21005KT P6SM SHRA VCTS OVC040CB
     FM261800 22005KT P6SM VCTS OVC040CB
     FM270900 VRB03KT P6SM SHRA VCTS BKN040CB=

USA.gov is the U.S. government's official web portal to all federal, state and local government web resources and services.